createdAt,value
2017-10-26T00:01:04.091Z,15.27
2017-10-26T00:03:31.653Z,21.42
2017-10-26T00:05:59.202Z,14.93
2017-10-26T00:08:26.757Z,17.00
2017-10-26T00:10:54.303Z,22.98
2017-10-26T00:13:21.866Z,22.08
2017-10-26T00:15:49.405Z,22.50
2017-10-26T00:18:16.966Z,22.80
2017-10-26T00:20:44.507Z,19.20
2017-10-26T00:23:12.836Z,23.08
2017-10-26T00:25:40.372Z,23.33
2017-10-26T00:28:07.937Z,22.27
2017-10-26T00:30:35.469Z,22.30
2017-10-26T00:33:04.186Z,23.17
2017-10-26T00:35:32.165Z,21.25
2017-10-26T00:37:59.706Z,24.17
2017-10-26T00:40:27.281Z,24.48
2017-10-26T00:42:55.595Z,24.60
2017-10-26T00:45:23.161Z,22.35
2017-10-26T00:47:51.083Z,23.33
2017-10-26T00:50:18.744Z,16.65
2017-10-26T00:52:46.291Z,19.95
2017-10-26T00:55:13.924Z,18.05
2017-10-26T00:57:41.490Z,21.33
2017-10-26T01:00:09.028Z,20.45
2017-10-26T01:02:36.591Z,20.08
2017-10-26T01:05:04.917Z,22.40
2017-10-26T01:07:32.485Z,23.12
2017-10-26T01:10:00.056Z,20.55
2017-10-26T01:12:27.638Z,21.42
2017-10-26T01:14:55.191Z,19.33
2017-10-26T01:17:22.759Z,21.55
2017-10-26T01:19:51.077Z,21.75
2017-10-26T01:22:18.648Z,23.62
2017-10-26T01:24:46.188Z,24.17
2017-10-26T01:27:13.773Z,22.25
2017-10-26T01:29:41.321Z,23.95
2017-10-26T01:32:08.995Z,23.35
2017-10-26T01:34:36.556Z,22.23
2017-10-26T01:37:04.093Z,25.25
2017-10-26T01:39:31.637Z,22.87
2017-10-26T01:41:59.966Z,21.65
2017-10-26T01:44:27.534Z,24.83
2017-10-26T01:46:55.084Z,24.23
2017-10-26T01:49:22.641Z,24.02
2017-10-26T01:51:50.182Z,23.92
2017-10-26T01:54:17.725Z,23.50
2017-10-26T01:56:45.290Z,26.00
2017-10-26T01:59:12.830Z,23.20
2017-10-26T02:01:41.160Z,25.42
2017-10-26T02:04:08.716Z,25.37
2017-10-26T02:06:36.286Z,25.92
2017-10-26T02:09:04.600Z,25.58
2017-10-26T02:11:32.276Z,25.58
2017-10-26T02:13:59.816Z,25.92
2017-10-26T02:16:27.390Z,24.45
2017-10-26T02:18:54.933Z,24.85
2017-10-26T02:21:22.500Z,25.48
2017-10-26T02:23:50.061Z,25.52
2017-10-26T02:26:17.622Z,22.75
2017-10-26T02:29:05.894Z,24.08
2017-10-26T02:31:35.880Z,23.15
2017-10-26T02:34:03.441Z,31.02
2017-10-26T02:36:31.025Z,28.17
2017-10-26T02:38:58.566Z,32.00
2017-10-26T02:41:26.123Z,32.35
2017-10-26T02:43:53.687Z,39.35
2017-10-26T02:46:21.234Z,26.60
2017-10-26T02:48:48.817Z,36.28
2017-10-26T02:51:16.366Z,31.85
2017-10-26T02:53:43.937Z,32.60
2017-10-26T02:56:11.487Z,33.90
2017-10-26T02:58:39.055Z,32.55
2017-10-26T03:01:06.595Z,32.08
2017-10-26T03:03:34.153Z,30.67
2017-10-26T03:06:01.717Z,31.12
2017-10-26T03:08:29.256Z,35.03
2017-10-26T03:10:57.676Z,30.52
2017-10-26T03:13:25.216Z,32.00
2017-10-26T03:15:52.785Z,30.52
2017-10-26T03:18:20.345Z,32.50
2017-10-26T03:20:47.893Z,34.95
2017-10-26T03:23:15.441Z,28.10
2017-10-26T03:25:42.998Z,28.87
2017-10-26T03:28:10.565Z,42.80
2017-10-26T03:30:38.114Z,31.17
2017-10-26T03:33:06.462Z,39.42
2017-10-26T03:35:34.008Z,39.67
2017-10-26T03:38:01.566Z,31.00
2017-10-26T03:40:29.102Z,32.80
2017-10-26T03:42:56.640Z,32.58
2017-10-26T03:45:24.218Z,38.15
2017-10-26T03:47:51.765Z,35.15
2017-10-26T03:50:19.339Z,38.47
2017-10-26T03:52:46.895Z,34.92
2017-10-26T03:55:14.465Z,35.85
2017-10-26T03:57:42.013Z,32.30
2017-10-26T04:00:09.594Z,34.28
2017-10-26T04:02:37.142Z,37.05
2017-10-26T04:05:04.709Z,38.97
2017-10-26T04:07:33.037Z,37.33
2017-10-26T04:10:00.594Z,31.85
2017-10-26T04:12:28.143Z,32.35
2017-10-26T04:14:55.693Z,32.40
2017-10-26T04:17:24.025Z,33.97
2017-10-26T04:19:51.565Z,33.17
2017-10-26T04:22:19.128Z,31.98
2017-10-26T04:24:46.673Z,33.85
2017-10-26T04:27:14.250Z,33.40
2017-10-26T04:29:42.585Z,28.12
2017-10-26T04:32:10.718Z,33.78
2017-10-26T04:34:38.265Z,31.98
2017-10-26T04:37:06.601Z,40.90
2017-10-26T04:39:34.196Z,36.05
2017-10-26T04:42:01.773Z,44.83
2017-10-26T04:44:29.318Z,31.73
2017-10-26T04:46:56.928Z,38.95
2017-10-26T04:49:25.932Z,38.65
2017-10-26T04:51:54.488Z,35.85
2017-10-26T04:54:22.349Z,50.10
2017-10-26T04:56:50.146Z,35.78
2017-10-26T04:59:18.453Z,29.40
2017-10-26T05:01:46.012Z,39.05
2017-10-26T05:04:14.361Z,31.00
2017-10-26T05:06:41.905Z,26.87
2017-10-26T05:09:09.608Z,29.87
2017-10-26T05:11:37.150Z,32.20
2017-10-26T05:14:04.717Z,29.37
2017-10-26T05:16:32.358Z,31.45
2017-10-26T05:19:00.666Z,35.00
2017-10-26T05:21:28.237Z,33.03
2017-10-26T05:23:55.797Z,32.65
2017-10-26T05:26:23.344Z,34.13
2017-10-26T05:28:50.931Z,26.65
2017-10-26T05:31:18.492Z,28.75
2017-10-26T05:33:46.021Z,26.90
2017-10-26T05:36:13.592Z,26.05
2017-10-26T05:38:41.914Z,27.87
2017-10-26T05:41:09.474Z,34.08
2017-10-26T05:43:37.015Z,24.33
2017-10-26T05:46:04.569Z,24.75
2017-10-26T05:48:32.106Z,33.67
2017-10-26T05:51:00.449Z,34.33
2017-10-26T05:53:27.990Z,22.92
2017-10-26T05:55:55.548Z,18.27
2017-10-26T05:58:23.085Z,21.05
2017-10-26T06:00:50.655Z,21.08
2017-10-26T06:03:18.240Z,20.40
2017-10-26T06:05:45.783Z,20.77
2017-10-26T06:08:13.354Z,35.55
2017-10-26T06:10:44.062Z,25.15
2017-10-26T06:13:13.083Z,33.05
2017-10-26T06:15:40.621Z,27.67
2017-10-26T06:18:08.182Z,27.80
2017-10-26T06:20:35.726Z,26.35
2017-10-26T06:23:03.299Z,21.95
2017-10-26T06:25:30.845Z,20.52
2017-10-26T06:27:58.393Z,20.55
2017-10-26T06:30:25.928Z,20.60
2017-10-26T06:32:54.245Z,17.80
2017-10-26T06:35:21.796Z,20.27
2017-10-26T06:37:49.332Z,33.95
2017-10-26T06:40:17.676Z,21.42
2017-10-26T06:42:45.225Z,24.05
2017-10-26T06:45:12.774Z,22.60
2017-10-26T06:47:40.328Z,22.77
2017-10-26T06:50:07.869Z,25.60
2017-10-26T06:52:35.432Z,21.87
2017-10-26T06:55:05.707Z,21.10
2017-10-26T06:57:33.309Z,19.60
2017-10-26T07:00:01.633Z,17.52
2017-10-26T07:02:29.191Z,17.05
2017-10-26T07:04:56.756Z,21.20
2017-10-26T07:07:24.289Z,24.30
2017-10-26T07:09:52.621Z,15.25
2017-10-26T07:12:20.163Z,22.80
2017-10-26T07:14:47.725Z,15.32
2017-10-26T07:17:15.290Z,18.08
2017-10-26T07:19:42.867Z,17.08
2017-10-26T07:22:10.417Z,12.05
2017-10-26T07:24:37.981Z,14.40
2017-10-26T07:27:05.513Z,11.95
2017-10-26T07:29:33.070Z,9.57
2017-10-26T07:32:00.620Z,10.10
2017-10-26T07:34:28.184Z,10.32
2017-10-26T07:36:55.717Z,9.82
2017-10-26T07:39:24.037Z,9.35
2017-10-26T07:41:51.569Z,9.55
2017-10-26T07:44:19.885Z,8.70
2017-10-26T07:46:47.422Z,9.40
2017-10-26T07:49:14.974Z,10.60
2017-10-26T07:51:42.504Z,8.07
2017-10-26T07:54:10.049Z,8.27
2017-10-26T07:56:37.603Z,9.30
2017-10-26T07:59:05.147Z,7.22
2017-10-26T08:01:32.797Z,6.70
2017-10-26T08:04:00.351Z,5.53
2017-10-26T08:06:28.017Z,5.40
2017-10-26T08:08:55.554Z,5.50
2017-10-26T08:11:23.109Z,5.70
2017-10-26T08:13:51.407Z,5.27
2017-10-26T08:16:18.971Z,4.73
2017-10-26T08:18:46.518Z,4.23
2017-10-26T08:21:14.052Z,4.40
2017-10-26T08:23:42.377Z,3.67
2017-10-26T08:26:09.932Z,4.40
2017-10-26T08:28:37.472Z,3.90
2017-10-26T08:31:05.034Z,4.23
2017-10-26T08:33:32.577Z,3.70
2017-10-26T08:36:00.879Z,4.70
2017-10-26T08:38:28.447Z,4.47
2017-10-26T08:40:55.967Z,3.80
2017-10-26T08:43:24.319Z,3.70
2017-10-26T08:45:52.152Z,4.03
2017-10-26T08:48:19.697Z,3.93
2017-10-26T08:50:47.240Z,4.13
2017-10-26T08:53:15.535Z,3.43
2017-10-26T08:55:43.104Z,3.87
2017-10-26T08:58:10.630Z,3.70
2017-10-26T09:00:38.964Z,4.37
2017-10-26T09:03:06.491Z,3.73
2017-10-26T09:05:34.049Z,3.80
2017-10-26T09:08:01.571Z,3.60
2017-10-26T09:10:29.125Z,4.60
2017-10-26T09:12:56.654Z,4.00
2017-10-26T09:15:24.216Z,4.10
2017-10-26T09:17:51.858Z,4.50
2017-10-26T09:20:19.432Z,4.17
2017-10-26T09:22:46.965Z,5.03
2017-10-26T09:25:14.486Z,4.47
2017-10-26T09:27:42.107Z,3.97
2017-10-26T09:30:09.649Z,4.90
2017-10-26T09:32:37.211Z,4.33
2017-10-26T09:35:04.739Z,5.13
2017-10-26T09:37:33.048Z,4.93
2017-10-26T09:40:00.583Z,4.70
2017-10-26T09:42:29.241Z,4.30
2017-10-26T09:44:56.773Z,4.90
2017-10-26T09:47:24.313Z,5.30
2017-10-26T09:49:51.862Z,4.90
2017-10-26T09:52:19.412Z,4.10
2017-10-26T09:54:47.746Z,4.60
2017-10-26T09:57:15.273Z,4.60
2017-10-26T09:59:43.859Z,4.40
2017-10-26T10:02:11.525Z,3.90
2017-10-26T10:04:39.103Z,3.63
2017-10-26T10:07:06.644Z,3.57
2017-10-26T10:09:36.828Z,3.37
2017-10-26T10:12:05.148Z,3.87
2017-10-26T10:14:32.723Z,3.00
2017-10-26T10:17:00.291Z,3.13
2017-10-26T10:19:27.829Z,2.80
2017-10-26T10:21:55.394Z,3.73
2017-10-26T10:24:22.921Z,2.77
2017-10-26T10:26:50.512Z,3.10
2017-10-26T10:29:18.081Z,3.00
2017-10-26T10:31:45.637Z,3.00
2017-10-26T10:34:13.241Z,3.80
2017-10-26T10:36:40.796Z,3.30
2017-10-26T10:39:08.337Z,3.20
2017-10-26T10:41:35.865Z,3.13
2017-10-26T10:44:03.413Z,3.47
2017-10-26T10:46:30.957Z,3.40
2017-10-26T10:48:59.274Z,3.20
2017-10-26T10:51:26.801Z,3.10
2017-10-26T10:53:54.352Z,3.03
2017-10-26T10:56:22.686Z,2.80
2017-10-26T10:58:50.217Z,2.70
2017-10-26T11:01:17.879Z,3.60
2017-10-26T11:03:45.410Z,3.97
2017-10-26T11:06:13.732Z,4.30
2017-10-26T11:08:41.265Z,4.20
2017-10-26T11:11:08.949Z,4.50
2017-10-26T11:13:36.489Z,4.00
2017-10-26T11:16:04.047Z,4.10
2017-10-26T11:18:31.581Z,3.73
2017-10-26T11:20:59.150Z,3.20
2017-10-26T11:23:27.446Z,2.80
2017-10-26T11:25:54.990Z,2.77
2017-10-26T11:28:23.301Z,1.97
2017-10-26T11:30:50.841Z,2.10
2017-10-26T11:33:18.385Z,1.70
2017-10-26T11:35:46.676Z,1.57
2017-10-26T11:38:14.221Z,1.60
2017-10-26T11:40:42.513Z,1.93
2017-10-26T11:43:10.066Z,1.57
2017-10-26T11:45:37.645Z,1.53
2017-10-26T11:48:05.205Z,1.53
2017-10-26T11:50:32.776Z,1.13
2017-10-26T11:53:00.366Z,1.50
2017-10-26T11:55:27.905Z,2.17
2017-10-26T11:57:55.432Z,1.40
2017-10-26T12:00:23.117Z,1.97
2017-10-26T12:02:50.657Z,1.70
2017-10-26T12:05:18.219Z,1.53
2017-10-26T12:07:45.749Z,1.90
2017-10-26T12:10:14.055Z,1.53
2017-10-26T12:12:41.594Z,1.70
2017-10-26T12:15:09.913Z,1.67
2017-10-26T12:17:37.462Z,1.87
2017-10-26T12:20:05.020Z,1.77
2017-10-26T12:22:32.555Z,2.10
2017-10-26T12:25:00.869Z,1.80
2017-10-26T12:27:28.430Z,1.93
2017-10-26T12:29:55.989Z,1.50
2017-10-26T12:32:23.550Z,2.63
2017-10-26T12:34:51.085Z,1.43
2017-10-26T12:37:18.632Z,1.77
2017-10-26T12:39:46.158Z,1.87
2017-10-26T12:42:13.722Z,1.60
2017-10-26T12:44:41.237Z,1.80
2017-10-26T12:47:08.793Z,1.80
2017-10-26T12:49:36.325Z,1.77
2017-10-26T12:52:04.633Z,1.53
2017-10-26T12:54:32.187Z,2.10
2017-10-26T12:56:59.717Z,1.80
2017-10-26T12:59:27.292Z,1.70
2017-10-26T13:01:55.236Z,1.50
2017-10-26T13:04:22.839Z,2.37
2017-10-26T13:06:51.134Z,1.97
2017-10-26T13:09:18.699Z,2.10
2017-10-26T13:11:46.229Z,2.43
2017-10-26T13:14:14.537Z,1.80
2017-10-26T13:16:42.077Z,2.23
2017-10-26T13:19:10.528Z,3.43
2017-10-26T13:21:38.355Z,2.87
2017-10-26T13:24:06.018Z,2.90
2017-10-26T13:26:33.541Z,2.37
2017-10-26T13:29:01.105Z,2.87
2017-10-26T13:31:28.629Z,2.10
2017-10-26T13:33:56.185Z,2.10
2017-10-26T13:36:23.740Z,2.83
2017-10-26T13:38:51.286Z,2.60
2017-10-26T13:41:19.614Z,2.70
2017-10-26T13:43:47.160Z,2.60
2017-10-26T13:46:15.479Z,2.83
2017-10-26T13:48:43.015Z,2.63
2017-10-26T13:51:10.566Z,2.80
2017-10-26T13:53:38.101Z,2.17
2017-10-26T13:56:06.417Z,2.50
2017-10-26T13:58:33.961Z,2.27
2017-10-26T14:01:01.506Z,2.87
2017-10-26T14:03:29.047Z,2.37
2017-10-26T14:05:57.409Z,2.70
2017-10-26T14:08:25.002Z,2.60
2017-10-26T14:10:52.598Z,2.50
2017-10-26T14:13:20.157Z,2.30
2017-10-26T14:15:47.694Z,2.33
2017-10-26T14:18:15.245Z,2.57
2017-10-26T14:20:42.821Z,2.80
2017-10-26T14:23:10.368Z,2.47
2017-10-26T14:25:37.907Z,2.20
2017-10-26T14:28:05.465Z,2.57
2017-10-26T14:30:33.001Z,2.60
2017-10-26T14:33:00.528Z,2.73
2017-10-26T14:35:28.109Z,3.27
2017-10-26T14:37:55.641Z,3.30
2017-10-26T14:40:23.228Z,2.63
2017-10-26T14:42:51.590Z,2.67
2017-10-26T14:45:19.368Z,2.60
2017-10-26T14:47:47.236Z,3.10
2017-10-26T14:50:15.101Z,3.23
2017-10-26T14:52:42.869Z,3.00
2017-10-26T14:55:10.473Z,3.40
2017-10-26T14:57:38.035Z,4.30
2017-10-26T15:00:06.365Z,3.07
2017-10-26T15:02:33.890Z,4.17
2017-10-26T15:05:02.214Z,3.87
2017-10-26T15:07:29.737Z,3.03
2017-10-26T15:09:57.298Z,3.27
2017-10-26T15:12:24.883Z,3.43
2017-10-26T15:14:52.409Z,2.73
2017-10-26T15:17:20.730Z,3.63
2017-10-26T15:19:48.271Z,3.47
2017-10-26T15:22:15.827Z,4.00
2017-10-26T15:24:43.381Z,4.20
2017-10-26T15:27:10.933Z,4.10
2017-10-26T15:29:38.488Z,4.00
2017-10-26T15:32:06.902Z,3.30
2017-10-26T15:34:34.442Z,3.77
2017-10-26T15:37:02.002Z,3.70
2017-10-26T15:39:29.541Z,4.03
2017-10-26T15:41:57.081Z,3.90
2017-10-26T15:44:24.648Z,3.63
2017-10-26T15:46:52.967Z,4.27
2017-10-26T15:49:20.524Z,4.37
2017-10-26T15:51:48.065Z,4.70
2017-10-26T15:54:15.631Z,4.30
2017-10-26T15:56:43.167Z,5.50
2017-10-26T15:59:11.495Z,3.90
2017-10-26T16:01:39.032Z,3.70
2017-10-26T16:04:06.597Z,3.97
2017-10-26T16:06:34.148Z,4.53
2017-10-26T16:09:01.678Z,4.13
2017-10-26T16:11:29.236Z,5.40
2017-10-26T16:13:57.561Z,6.17
2017-10-26T16:16:25.112Z,5.97
2017-10-26T16:18:52.662Z,5.23
2017-10-26T16:21:20.209Z,6.20
2017-10-26T16:23:48.516Z,6.07
2017-10-26T16:26:16.079Z,7.50
2017-10-26T16:28:43.699Z,7.53
2017-10-26T16:31:12.041Z,7.30
2017-10-26T16:33:39.688Z,7.07
2017-10-26T16:36:07.248Z,7.50
2017-10-26T16:38:34.811Z,6.80
2017-10-26T16:41:02.370Z,7.80
2017-10-26T16:43:29.905Z,8.13
2017-10-26T16:45:57.449Z,6.50
2017-10-26T16:48:25.778Z,7.72
2017-10-26T16:50:53.305Z,6.80
2017-10-26T16:53:20.868Z,8.40
2017-10-26T16:55:48.391Z,5.87
2017-10-26T16:58:15.951Z,8.43
2017-10-26T17:00:43.485Z,7.80
2017-10-26T17:03:11.055Z,7.77
2017-10-26T17:05:38.600Z,8.63
2017-10-26T17:08:06.154Z,8.37
2017-10-26T17:10:33.684Z,8.33
2017-10-26T17:13:01.222Z,8.17
2017-10-26T17:15:29.552Z,8.30
2017-10-26T17:17:57.085Z,7.30
2017-10-26T17:20:24.644Z,8.77
2017-10-26T17:22:52.188Z,8.50
2017-10-26T17:25:20.513Z,7.80
2017-10-26T17:27:48.053Z,8.50
2017-10-26T17:30:15.607Z,8.13
2017-10-26T17:32:43.151Z,8.00
2017-10-26T17:35:10.713Z,8.10
2017-10-26T17:37:38.272Z,7.40
2017-10-26T17:40:05.848Z,7.35
2017-10-26T17:42:33.398Z,8.60
2017-10-26T17:45:00.930Z,7.20
2017-10-26T17:47:29.252Z,7.93
2017-10-26T17:49:56.782Z,8.93
2017-10-26T17:52:25.117Z,7.87
2017-10-26T17:54:52.674Z,9.70
2017-10-26T17:57:20.230Z,9.37
2017-10-26T17:59:47.777Z,9.63
2017-10-26T18:02:15.305Z,7.90
2017-10-26T18:04:42.886Z,8.90
2017-10-26T18:07:10.452Z,10.63
2017-10-26T18:09:38.041Z,10.30
2017-10-26T18:12:05.569Z,9.67
2017-10-26T18:14:33.145Z,9.03
2017-10-26T18:17:00.702Z,10.32
2017-10-26T18:19:28.393Z,9.30
2017-10-26T18:21:56.698Z,8.80
2017-10-26T18:24:25.041Z,8.35
2017-10-26T18:26:52.607Z,11.52
2017-10-26T18:29:20.192Z,10.68
2017-10-26T18:31:48.514Z,12.60
2017-10-26T18:34:16.061Z,14.15
2017-10-26T18:36:43.734Z,13.10
2017-10-26T18:39:11.313Z,12.30
2017-10-26T18:41:38.865Z,13.10
2017-10-26T18:44:06.440Z,12.63
2017-10-26T18:46:34.029Z,12.60
2017-10-26T18:49:02.381Z,12.20
2017-10-26T18:51:29.914Z,13.03
2017-10-26T18:53:57.488Z,11.35
2017-10-26T18:56:25.036Z,10.07
2017-10-26T18:58:52.604Z,10.68
2017-10-26T19:01:20.169Z,11.77
2017-10-26T19:03:47.749Z,10.80
2017-10-26T19:06:15.304Z,12.13
2017-10-26T19:08:42.942Z,11.37
2017-10-26T19:11:10.515Z,12.00
2017-10-26T19:13:38.106Z,9.43
2017-10-26T19:16:06.433Z,11.30
2017-10-26T19:18:34.018Z,9.70
2017-10-26T19:21:01.578Z,11.25
2017-10-26T19:23:29.178Z,11.57
2017-10-26T19:25:57.509Z,9.13
2017-10-26T19:28:25.086Z,10.32
2017-10-26T19:30:52.630Z,10.45
2017-10-26T19:33:20.240Z,10.38
2017-10-26T19:35:47.789Z,11.32
2017-10-26T19:38:16.122Z,12.82
2017-10-26T19:40:43.670Z,12.70
2017-10-26T19:43:11.216Z,11.35
2017-10-26T19:45:38.776Z,10.82
2017-10-26T19:48:06.322Z,12.93
2017-10-26T19:50:33.883Z,9.20
2017-10-26T19:53:01.460Z,11.70
2017-10-26T19:55:29.951Z,10.32
2017-10-26T19:57:57.515Z,12.60
2017-10-26T20:00:25.080Z,15.35
2017-10-26T20:02:52.739Z,15.45
2017-10-26T20:05:20.309Z,16.05
2017-10-26T20:07:47.894Z,14.87
2017-10-26T20:10:15.461Z,13.20
2017-10-26T20:12:43.004Z,12.70
2017-10-26T20:15:10.582Z,13.15
2017-10-26T20:17:38.163Z,12.30
2017-10-26T20:20:05.715Z,10.40
2017-10-26T20:22:33.286Z,11.50
2017-10-26T20:25:00.858Z,11.52
2017-10-26T20:27:29.161Z,12.15
2017-10-26T20:29:56.726Z,12.82
2017-10-26T20:32:24.269Z,12.77
2017-10-26T20:34:51.849Z,12.95
2017-10-26T20:37:19.413Z,11.02
2017-10-26T20:39:48.153Z,12.50
2017-10-26T20:42:15.680Z,13.25
2017-10-26T20:44:43.228Z,12.37
2017-10-26T20:47:10.816Z,13.20
2017-10-26T20:49:44.070Z,11.55
2017-10-26T20:52:17.317Z,10.48
2017-10-26T20:54:51.399Z,12.55
2017-10-26T20:57:24.557Z,11.73
2017-10-26T20:59:57.835Z,11.63
2017-10-26T21:02:31.170Z,13.18
2017-10-26T21:05:04.510Z,15.45
2017-10-26T21:07:38.608Z,17.45
2017-10-26T21:10:21.068Z,23.10
2017-10-26T21:12:54.193Z,25.73
2017-10-26T21:15:21.766Z,22.45
2017-10-26T21:17:50.082Z,22.27
2017-10-26T21:20:17.642Z,18.98
2017-10-26T21:22:45.209Z,19.77
2017-10-26T21:25:12.765Z,15.40
2017-10-26T21:27:40.326Z,17.35
2017-10-26T21:30:07.908Z,18.58
2017-10-26T21:32:36.228Z,18.65
2017-10-26T21:35:04.571Z,20.73
2017-10-26T21:37:32.121Z,18.03
2017-10-26T21:39:59.679Z,15.25
2017-10-26T21:42:27.256Z,14.25
2017-10-26T21:44:54.816Z,15.65
2017-10-26T21:47:22.369Z,14.70
2017-10-26T21:49:50.689Z,13.98
2017-10-26T21:52:18.245Z,13.52
2017-10-26T21:54:45.792Z,14.23
2017-10-26T21:57:14.582Z,14.50
2017-10-26T21:59:42.124Z,15.52
2017-10-26T22:02:09.721Z,14.07
2017-10-26T22:04:37.253Z,13.30
2017-10-26T22:07:04.823Z,13.65
2017-10-26T22:09:32.374Z,14.98
2017-10-26T22:11:59.953Z,14.25
2017-10-26T22:14:27.493Z,12.55
2017-10-26T22:16:55.076Z,12.25
2017-10-26T22:19:22.617Z,13.98
2017-10-26T22:21:50.194Z,15.13
2017-10-26T22:24:17.754Z,13.40
2017-10-26T22:26:45.310Z,12.35
2017-10-26T22:29:13.310Z,13.05
2017-10-26T22:31:40.882Z,13.35
2017-10-26T22:34:08.441Z,15.15
2017-10-26T22:36:35.985Z,13.20
2017-10-26T22:39:12.939Z,13.90
2017-10-26T22:41:44.945Z,15.82
2017-10-26T22:44:14.042Z,14.60
2017-10-26T22:46:41.605Z,13.00
2017-10-26T22:49:09.172Z,15.27
2017-10-26T22:51:36.726Z,14.93
2017-10-26T22:54:04.285Z,12.27
2017-10-26T22:56:31.825Z,12.63
2017-10-26T22:58:59.384Z,11.57
2017-10-26T23:01:26.912Z,12.05
2017-10-26T23:03:55.269Z,10.45
2017-10-26T23:06:22.805Z,11.43
2017-10-26T23:08:50.361Z,11.65
2017-10-26T23:11:17.906Z,11.38
2017-10-26T23:13:45.482Z,12.25
2017-10-26T23:16:13.039Z,12.07
2017-10-26T23:18:40.634Z,10.95
2017-10-26T23:21:08.946Z,11.70
2017-10-26T23:23:37.258Z,12.55
2017-10-26T23:26:04.808Z,11.40
2017-10-26T23:28:32.367Z,11.60
2017-10-26T23:30:59.900Z,11.85
2017-10-26T23:33:28.229Z,10.93
2017-10-26T23:35:55.761Z,11.40
2017-10-26T23:38:23.301Z,10.43
2017-10-26T23:40:50.869Z,12.15
2017-10-26T23:43:18.406Z,12.57
2017-10-26T23:45:46.735Z,11.05
2017-10-26T23:48:14.297Z,12.13
2017-10-26T23:50:41.845Z,12.30
2017-10-26T23:53:10.175Z,11.50
2017-10-26T23:55:37.729Z,11.30
2017-10-26T23:58:05.285Z,11.95
